Data for 02/06/2015

Time Sea-Level Adjusted Pressure Absolute Pressure Temperature Relative Humidity Dew Point   
(mb) (inHg) (mb) (inHg) (C) (F) (%) (C) (F)
00:05 1014 29.94 843 24.89 10.3 50.6 29 -6.8 19.8
00:10 1014 29.94 843 24.89 10.5 50.8 30 -6.5 20.3
00:15 1014 29.94 843 24.89 10.2 50.4 33 -5.2 22.7
00:20 1014 29.94 843 24.89 9.5 49.1 32 -6.5 20.4
00:25 1014 29.94 843 24.89 10.1 50.2 28 -7.4 18.7
00:30 1014 29.94 843 24.89 11 51.7 28 -6.8 19.7
00:35 1014 29.94 843 24.89 11 51.8 28 -6.6 20.2
00:40 1014 29.94 843 24.89 10.8 51.4 28 -6.9 19.6
00:45 1014 29.94 843 24.89 10.7 51.3 29 -6.4 20.4
00:50 1014 29.94 843 24.89 10.4 50.6 30 -6.5 20.4
00:55 1014 29.94 843 24.89 10.1 50.2 30 -6.6 20
01:00 1014 29.94 843 24.89 10.3 50.6 28 -7.2 19.1
01:05 1014 29.94 843 24.89 11 51.9 26 -8 17.7
01:10 1013 29.91 843 24.89 11.6 52.8 24 -8.2 17.3
01:15 1013 29.91 843 24.89 11.8 53.2 25 -7.6 18.4
01:20 1014 29.94 843 24.89 11.1 52 28 -6.6 20.1
01:25 1014 29.94 843 24.89 10.4 50.7 29 -6.8 19.8
01:30 1014 29.94 843 24.89 10.2 50.3 31 -6.4 20.5
01:35 1014 29.94 843 24.89 9.7 49.5 30 -6.9 19.6
01:40 1014 29.94 843 24.89 10.5 50.8 26 -8.3 17.1
01:45 1014 29.94 843 24.89 11.6 53 24 -8.3 17
01:50 1014 29.94 843 24.89 11.8 53.3 25 -7.5 18.5
01:55 1014 29.94 843 24.89 11.8 53.2 24 -8.3 17.1
02:00 1014 29.94 843 24.89 11.7 53.1 25 -7.6 18.2
02:05 1014 29.94 843 24.89 11.4 52.6 26 -7.4 18.8
02:10 1014 29.94 843 24.89 11 51.8 27 -7.4 18.7
02:15 1014 29.94 843 24.89 11.1 52 26 -7.8 17.9
02:20 1014 29.94 843 24.89 11.2 52.2 26 -7.5 18.5
02:25 1013 29.91 843 24.89 11.2 52.1 26 -7.6 18.4
02:30 1013 29.91 843 24.89 10.8 51.5 29 -6.6 20.1
02:35 1013 29.91 843 24.89 10.1 50.2 29 -7 19.3
02:40 1013 29.91 842 24.86 10.1 50.1 29 -7 19.4
02:45 1013 29.91 842 24.86 10.4 50.8 28 -7.3 18.9
02:50 1013 29.91 843 24.89 10.6 51 28 -7.2 19
02:55 1013 29.91 842 24.86 10.6 51.1 28 -7.2 19
03:00 1013 29.91 842 24.86 10.7 51.2 27 -7.3 18.8
03:05 1013 29.91 842 24.86 10.9 51.5 27 -7.2 19.1
03:10 1013 29.91 842 24.86 10.8 51.5 28 -7.2 19.1
03:15 1013 29.91 842 24.86 10.7 51.3 27 -7.3 18.8
03:20 1013 29.91 843 24.89 10.8 51.4 27 -7.3 18.9
03:25 1013 29.91 843 24.89 11 51.7 27 -7.5 18.6
03:30 1013 29.91 843 24.89 11.1 51.9 27 -7.4 18.8
03:35 1013 29.91 843 24.89 11 51.8 27 -7.4 18.7
03:40 1013 29.91 842 24.86 11.3 52.3 26 -7.6 18.3
03:45 1013 29.91 842 24.86 11.2 52.2 27 -7.1 19.2
03:50 1013 29.91 842 24.86 11 51.7 27 -7.5 18.5
03:55 1013 29.91 842 24.86 11.3 52.3 27 -7.1 19.2
04:00 1013 29.91 842 24.86 11.4 52.4 25 -8.1 17.4
04:05 1013 29.91 842 24.86 11.8 53.3 24 -8.2 17.2
04:10 1013 29.91 842 24.86 11.7 53 26 -7.2 19.1
04:15 1013 29.91 843 24.89 11.2 52.2 25 -7.9 17.8
04:20 1013 29.91 843 24.89 11.5 52.8 25 -7.9 17.7
04:25 1013 29.91 842 24.86 11.6 53 26 -7.4 18.7
04:30 1013 29.91 842 24.86 11.3 52.3 25 -8.1 17.4
04:35 1013 29.91 842 24.86 11.6 52.8 25 -7.6 18.3
04:40 1013 29.91 842 24.86 11.9 53.4 25 -7.2 19
04:45 1013 29.91 842 24.86 11.6 52.9 26 -7.4 18.8
04:50 1013 29.91 842 24.86 11.4 52.5 27 -6.7 19.9
04:55 1013 29.91 842 24.86 11.1 52 27 -7.3 18.9
05:00 1013 29.91 842 24.86 11.2 52.2 27 -7 19.4
05:05 1013 29.91 842 24.86 11.3 52.3 27 -7.1 19.3
05:10 1013 29.91 842 24.86 11.4 52.5 27 -6.7 19.9
05:15 1013 29.91 842 24.86 11.4 52.5 26 -7.5 18.6
05:20 1013 29.91 842 24.86 12.2 53.9 23 -8.1 17.4
05:25 1013 29.91 842 24.86 12.4 54.3 23 -8.3 17
05:30 1013 29.91 842 24.86 12.9 55.2 23 -7.7 18.1
05:35 1013 29.91 842 24.86 12.5 54.4 26 -6.7 19.9
05:40 1012 29.88 842 24.86 11.8 53.2 26 -6.9 19.5
05:45 1012 29.88 841 24.83 11.8 53.2 25 -7.6 18.3
05:50 1012 29.88 841 24.83 11.8 53.3 24 -8.2 17.3
05:55 1012 29.88 842 24.86 12.1 53.8 25 -7.3 18.9
06:00 1012 29.88 842 24.86 11.6 52.9 26 -7.4 18.8
06:05 1012 29.88 842 24.86 11.6 52.9 26 -7.2 19
06:10 1012 29.88 842 24.86 11.3 52.3 27 -7.1 19.2
06:15 1013 29.91 842 24.86 11.4 52.4 27 -7.2 19.1
06:20 1013 29.91 842 24.86 11.3 52.4 25 -7.8 18
06:25 1013 29.91 842 24.86 11.6 52.8 25 -8 17.6
06:30 1013 29.91 842 24.86 11.9 53.4 25 -7.8 18
06:35 1013 29.91 842 24.86 11.8 53.2 26 -7 19.4
06:40 1013 29.91 842 24.86 11.4 52.6 27 -7.1 19.3
06:45 1013 29.91 842 24.86 11.3 52.3 26 -7.3 18.9
06:50 1013 29.91 842 24.86 11.3 52.4 26 -7.5 18.6
06:55 1012 29.88 842 24.86 11.5 52.7 24 -8.2 17.3
07:00 1012 29.88 842 24.86 12 53.5 24 -7.9 17.8
07:05 1012 29.88 841 24.83 12 53.7 24 -8.1 17.4
07:10 1012 29.88 841 24.83 12.2 54 23 -8.1 17.5
07:15 1012 29.88 841 24.83 12.4 54.3 22 -8.5 16.6
07:20 1012 29.88 841 24.83 12.4 54.4 23 -7.9 17.7
07:25 1012 29.88 841 24.83 12.2 53.9 23 -8.1 17.3
07:30 1012 29.88 841 24.83 12.2 54 23 -8.5 16.7
07:35 1012 29.88 841 24.83 12.5 54.5 22 -8.6 16.5
07:40 1012 29.88 841 24.83 12.5 54.5 23 -8.1 17.4
07:45 1012 29.88 841 24.83 12.2 54 23 -8.4 16.8
07:50 1012 29.88 841 24.83 12.5 54.4 22 -8.7 16.4
07:55 1012 29.88 841 24.83 12.6 54.7 21 -9.1 15.7
08:00 1012 29.88 841 24.83 12.7 54.9 21 -8.9 15.9
08:05 1012 29.88 841 24.83 12.8 55.1 21 -9 15.9
08:10 1012 29.88 841 24.83 12.7 54.8 22 -8.2 17.2
08:15 1012 29.88 841 24.83 12.4 54.3 23 -8.3 17
08:20 1012 29.88 841 24.83 12.2 53.9 22 -8.7 16.3
08:25 1012 29.88 841 24.83 12.5 54.5 22 -8.8 16.1
08:30 1012 29.88 841 24.83 12.7 54.8 20 -9.4 15
08:35 1012 29.88 841 24.83 12.9 55.2 21 -8.8 16.2
08:40 1011 29.85 841 24.83 12.8 55.1 18 -10.7 12.7
08:45 1011 29.85 841 24.83 13.6 56.4 21 -8.5 16.7
08:50 1011 29.85 841 24.83 13.2 55.8 19 -9.6 14.7
08:55 1011 29.85 841 24.83 13.2 55.8 20 -9.2 15.4
09:00 1011 29.85 841 24.83 12.8 55.1 22 -8.6 16.4
09:05 1011 29.85 841 24.83 12.6 54.6 21 -9.1 15.6
09:10 1011 29.85 841 24.83 12.7 54.8 21 -8.9 16.1
09:15 1011 29.85 840 24.81 12.9 55.2 20 -9.3 15.2
09:20 1011 29.85 841 24.83 13 55.4 21 -8.9 16.1
09:25 1011 29.85 841 24.83 12.7 54.9 21 -8.7 16.3
09:30 1012 29.88 841 24.83 12.7 54.8 21 -9.1 15.5
09:35 1012 29.88 841 24.83 12.9 55.2 20 -9.8 14.4
09:40 1012 29.88 841 24.83 13.4 56.1 20 -9.2 15.5
09:45 1012 29.88 841 24.83 13.6 56.6 19 -9.5 14.9
09:50 1012 29.88 841 24.83 14.3 57.8 18 -9.5 14.9
09:55 1011 29.85 841 24.83 14.6 58.2 18 -9.8 14.4
10:00 1011 29.85 840 24.81 14.6 58.2 18 -9.2 15.4
10:05 1011 29.85 840 24.81 13.9 57.1 20 -8.8 16.2
10:10 1011 29.85 840 24.81 13.7 56.6 19 -9.6 14.7
10:15 1011 29.85 841 24.83 13.6 56.5 19 -9.7 14.5
10:20 1011 29.85 841 24.83 13.8 56.8 17 -10.7 12.8
10:25 1011 29.85 841 24.83 14 57.1 17 -10.3 13.4
10:30 1011 29.85 841 24.83 14.1 57.4 17 -10.4 13.3
10:35 1011 29.85 841 24.83 14 57.3 18 -10.2 13.7
10:40 1011 29.85 841 24.83 13.9 57 17 -10.5 13.2
10:45 1011 29.85 841 24.83 14.1 57.4 18 -9.9 14.1
10:50 1011 29.85 841 24.83 13.8 56.9 19 -9.5 14.9
10:55 1011 29.85 840 24.81 13.6 56.5 20 -9.1 15.6
11:00 1011 29.85 841 24.83 13.8 56.8 19 -9.3 15.3
11:05 1011 29.85 840 24.81 13.7 56.7 19 -9.2 15.5
11:10 1011 29.85 841 24.83 13.6 56.6 19 -9.2 15.4
11:15 1011 29.85 841 24.83 13.5 56.2 19 -9.6 14.7
11:20 1011 29.85 841 24.83 13.8 56.8 21 -8.4 16.8
11:25 1011 29.85 840 24.81 13.7 56.6 17 -10.6 13
11:30 1011 29.85 841 24.83 14.2 57.6 18 -9.6 14.8
11:35 1011 29.85 841 24.83 14.2 57.6 18 -9.5 14.9
11:40 1011 29.85 841 24.83 14.2 57.5 18 -9.7 14.6
11:45 1011 29.85 841 24.83 14.3 57.7 18 -9.9 14.1
11:50 1011 29.85 840 24.81 14.5 58.1 18 -9.2 15.4
11:55 1011 29.85 841 24.83 14.3 57.8 19 -9.1 15.6
12:00 1011 29.85 840 24.81 14.2 57.6 19 -9.3 15.3
12:05 1011 29.85 841 24.83 14.2 57.6 18 -9.6 14.7
12:10 1011 29.85 841 24.83 14.4 57.9 18 -9.5 14.8
12:15 1011 29.85 840 24.81 14.4 57.9 19 -9.1 15.7
12:20 1011 29.85 840 24.81 14.3 57.7 18 -9.5 14.8
12:25 1011 29.85 840 24.81 14.4 57.9 19 -8.6 16.5
12:30 1011 29.85 840 24.81 14.4 57.9 20 -8.4 16.9
12:35 1011 29.85 840 24.81 14.3 57.8 20 -8.1 17.5
12:40 1011 29.85 840 24.81 14.9 58.7 17 -9.6 14.7
12:45 1011 29.85 840 24.81 15.3 59.5 18 -9 15.9
12:50 1011 29.85 840 24.81 14.9 58.8 19 -8.5 16.7
12:55 1011 29.85 840 24.81 15 58.9 17 -9.5 14.9
13:00 1011 29.85 840 24.81 15.1 59.1 18 -8.7 16.3
13:05 1011 29.85 840 24.81 14.8 58.6 19 -8.7 16.4
13:10 1011 29.85 840 24.81 14.9 58.8 19 -8.7 16.4
13:15 1011 29.85 840 24.81 14.8 58.6 18 -9.5 14.9
13:20 1011 29.85 840 24.81 15.1 59.2 16 -10.4 13.3
13:25 1011 29.85 840 24.81 15.5 59.9 16 -10 14
13:30 1011 29.85 840 24.81 15.4 59.7 16 -9.9 14.1
13:35 1011 29.85 840 24.81 15.7 60.2 15 -11 12.3
13:40 1011 29.85 840 24.81 16 60.8 14 -11.2 11.8
13:45 1010 29.83 840 24.81 16.2 61.1 15 -10.8 12.5
13:50 1010 29.83 840 24.81 16.1 60.9 15 -10.5 13.1
13:55 1010 29.83 840 24.81 15.9 60.6 16 -10.2 13.6
14:00 1010 29.83 840 24.81 15.8 60.4 15 -10.5 13
14:05 1010 29.83 840 24.81 15.7 60.3 16 -9.6 14.6
14:10 1010 29.83 839 24.78 15.7 60.3 15 -10.8 12.6
14:15 1010 29.83 839 24.78 16 60.7 15 -10.7 12.8
14:20 1010 29.83 839 24.78 16 60.8 15 -10.6 12.8
14:25 1010 29.83 839 24.78 16.1 61 15 -10.5 13.1
14:30 1010 29.83 839 24.78 16.2 61.2 16 -9.8 14.4
14:35 1010 29.83 839 24.78 16 60.7 17 -8.8 16.2
14:40 1010 29.83 839 24.78 16 60.8 15 -10.4 13.3
14:45 1010 29.83 839 24.78 16.3 61.4 16 -9.9 14.2
14:50 1010 29.83 839 24.78 16.6 61.8 18 -8 17.6
14:55 1010 29.83 839 24.78 16.5 61.7 17 -8.4 16.8
15:00 1010 29.83 839 24.78 16.3 61.3 17 -8.4 16.9
15:05 1010 29.83 839 24.78 16.1 60.9 21 -6.2 20.8
15:10 1010 29.83 839 24.78 15.2 59.4 19 -8.1 17.4
15:15 1010 29.83 839 24.78 15.6 60 19 -8.1 17.4
15:20 1010 29.83 839 24.78 15.7 60.3 19 -7.9 17.8
15:25 1010 29.83 839 24.78 15.9 60.7 18 -8.5 16.7
15:30 1010 29.83 839 24.78 16 60.7 17 -8.8 16.2
15:35 1010 29.83 839 24.78 16.1 60.9 18 -8.2 17.2
15:40 1010 29.83 839 24.78 15.8 60.5 15 -11 12.2
15:45 1010 29.83 839 24.78 16.2 61.2 16 -9.8 14.3
15:50 1010 29.83 839 24.78 16.2 61.2 15 -10.5 13.2
15:55 1010 29.83 839 24.78 16.2 61.1 19 -7.7 18.1
16:00 1010 29.83 839 24.78 15.6 60 20 -7.1 19.3
16:05 1010 29.83 839 24.78 15.2 59.4 20 -7.3 18.9
16:10 1010 29.83 839 24.78 14.7 58.5 21 -7.3 18.9
16:15 1010 29.83 839 24.78 14.6 58.3 22 -6.9 19.6
16:20 1010 29.83 839 24.78 14.4 58 21 -7.4 18.7
16:25 1009 29.8 839 24.78 14.4 57.9 22 -6.8 19.7
16:30 1009 29.8 839 24.78 14.2 57.6 22 -7.2 19.1
16:35 1009 29.8 839 24.78 14.1 57.3 21 -8.2 17.3
16:40 1009 29.8 838 24.75 14.2 57.6 20 -8.1 17.3
16:45 1009 29.8 838 24.75 14.6 58.3 20 -8.3 17
16:50 1009 29.8 838 24.75 14.7 58.5 20 -8 17.5
16:55 1009 29.8 838 24.75 14.7 58.4 20 -8.2 17.2
17:00 1009 29.8 838 24.75 14.7 58.4 19 -8.7 16.3
17:05 1009 29.8 838 24.75 14.7 58.5 19 -8.8 16.2
17:10 1009 29.8 838 24.75 14.8 58.6 19 -8.5 16.6
17:15 1009 29.8 838 24.75 14.8 58.7 20 -7.8 17.9
17:20 1009 29.8 838 24.75 14.9 58.7 18 -9.1 15.6
17:25 1009 29.8 838 24.75 15.2 59.4 17 -9.7 14.5
17:30 1009 29.8 838 24.75 15.3 59.6 18 -9 15.8
17:35 1009 29.8 838 24.75 15.3 59.5 18 -8.5 16.6
17:40 1009 29.8 838 24.75 14.9 58.8 20 -8 17.6
17:45 1009 29.8 838 24.75 14.6 58.3 20 -8.1 17.4
17:50 1009 29.8 838 24.75 14.6 58.3 19 -8.6 16.6
17:55 1009 29.8 838 24.75 14.5 58.2 21 -7.6 18.4
18:00 1009 29.8 838 24.75 14.4 58 21 -7.5 18.6
18:05 1009 29.8 838 24.75 14.2 57.5 22 -7.2 19
18:10 1009 29.8 838 24.75 14.1 57.4 20 -8.2 17.2
18:15 1009 29.8 838 24.75 14.6 58.2 19 -8.5 16.6
18:20 1008 29.77 838 24.75 14.7 58.5 20 -8.3 17.1
18:25 1008 29.77 838 24.75 14.7 58.4 20 -8.2 17.3
18:30 1008 29.77 837 24.72 14.6 58.2 20 -8.3 17
18:35 1008 29.77 837 24.72 14.7 58.5 19 -8.6 16.5
18:40 1008 29.77 837 24.72 15.2 59.4 18 -8.8 16.2
18:45 1008 29.77 837 24.72 15.1 59.1 20 -7.6 18.4
18:50 1008 29.77 837 24.72 14.5 58.2 18 -9.2 15.4
18:55 1008 29.77 837 24.72 15 59 19 -8.6 16.6
19:00 1008 29.77 837 24.72 14.6 58.2 18 -9.3 15.2
19:05 1008 29.77 837 24.72 15 59.1 17 -9.8 14.3
19:10 1008 29.77 837 24.72 15.2 59.3 17 -9.7 14.6
19:15 1008 29.77 838 24.75 14.8 58.7 18 -9.1 15.7
19:20 1008 29.77 838 24.75 14.5 58.1 19 -8.5 16.7
19:25 1008 29.77 838 24.75 14.1 57.3 20 -8.6 16.5
19:30 1008 29.77 838 24.75 14 57.2 20 -8.7 16.3
19:35 1008 29.77 838 24.75 14.2 57.5 19 -9.2 15.5
19:40 1009 29.8 838 24.75 14.5 58.2 19 -9.1 15.6
19:45 1009 29.8 838 24.75 14.3 57.8 18 -9.4 15.1
19:50 1009 29.8 838 24.75 14.4 58 20 -8.5 16.8
19:55 1009 29.8 839 24.78 13.9 57 21 -8.2 17.2
20:00 1010 29.83 839 24.78 13.7 56.6 22 -7.9 17.8
20:05 1010 29.83 839 24.78 13.4 56.1 23 -7.3 18.8
20:10 1010 29.83 839 24.78 13.1 55.5 24 -7.1 19.1
20:15 1009 29.8 839 24.78 13 55.5 26 -6 21.3
20:20 1009 29.8 838 24.75 13.1 55.6 29 -4.7 23.6
20:25 1009 29.8 838 24.75 12.7 54.8 30 -4.5 23.8
20:30 1009 29.8 838 24.75 12.7 54.9 31 -4.1 24.6
20:35 1009 29.8 838 24.75 12.7 54.9 31 -3.9 25
20:40 1009 29.8 839 24.78 12.8 55.1 28 -5.1 22.9
20:45 1010 29.83 839 24.78 13.2 55.8 30 -3.9 25
20:50 1010 29.83 839 24.78 13 55.4 30 -4.3 24.3
20:55 1010 29.83 839 24.78 13 55.3 29 -4.5 24
21:00 1010 29.83 839 24.78 13.1 55.5 29 -4.3 24.2
21:05 1010 29.83 839 24.78 13.4 56.1 28 -4.9 23.1
21:10 1010 29.83 839 24.78 13.6 56.4 28 -4.7 23.6
21:15 1010 29.83 839 24.78 13.4 56.1 28 -4.7 23.5
21:20 1010 29.83 839 24.78 13.3 56 28 -4.5 23.9
21:25 1010 29.83 839 24.78 13.1 55.7 28 -5 23.1
21:30 1010 29.83 839 24.78 13.1 55.5 29 -4.3 24.2
21:35 1010 29.83 839 24.78 12.8 55 29 -4.6 23.8
21:40 1010 29.83 839 24.78 12.8 55 29 -4.7 23.5
21:45 1010 29.83 839 24.78 12.7 54.8 29 -4.7 23.5
21:50 1010 29.83 839 24.78 12.5 54.5 29 -4.9 23.2
21:55 1010 29.83 839 24.78 12.5 54.5 28 -5.3 22.4
22:00 1010 29.83 839 24.78 12.8 55 27 -5.7 21.7
22:05 1010 29.83 839 24.78 13.1 55.5 27 -5.5 22
22:10 1010 29.83 839 24.78 13.1 55.6 26 -5.7 21.7
22:15 1010 29.83 839 24.78 13.2 55.7 27 -5.6 21.9
22:20 1010 29.83 839 24.78 13.2 55.8 26 -6 21.1
22:25 1010 29.83 839 24.78 13.3 56 26 -5.7 21.8
22:30 1010 29.83 839 24.78 13.5 56.2 25 -6.1 20.9
22:35 1009 29.8 839 24.78 13.5 56.3 25 -6.3 20.6
22:40 1009 29.8 839 24.78 13.4 56.1 25 -6.3 20.6
22:45 1009 29.8 839 24.78 13.2 55.7 26 -6 21.2
22:50 1009 29.8 838 24.75 13 55.4 25 -6.5 20.4
22:55 1009 29.8 838 24.75 13 55.5 25 -6.3 20.6
23:00 1009 29.8 838 24.75 13.1 55.5 24 -6.9 19.5
23:05 1009 29.8 838 24.75 13.1 55.6 25 -6.6 20.1
23:10 1009 29.8 838 24.75 13 55.3 25 -6.8 19.8
23:15 1009 29.8 838 24.75 12.9 55.2 24 -7.2 19
23:20 1008 29.77 838 24.75 13.2 55.8 24 -6.9 19.7
23:25 1009 29.8 838 24.75 13.1 55.6 25 -6.7 20
23:30 1009 29.8 838 24.75 13.1 55.5 25 -6.7 19.9
23:35 1009 29.8 838 24.75 12.9 55.3 24 -6.9 19.7
23:40 1009 29.8 838 24.75 13.2 55.7 24 -6.9 19.5
23:45 1008 29.77 838 24.75 13.3 55.9 24 -6.9 19.6
23:50 1008 29.77 837 24.72 13.4 56.1 25 -6.4 20.4
23:55 1008 29.77 838 24.75 13 55.4 26 -6 21.2
24:00 1008 29.77 838 24.75 12.7 54.9 25 -6.6 20.1